sensor_id;sensor_type;location;lat;lon;timestamp;temperature;humidity
2621;DHT22;1320;48.128;11.592;2023-05-10T00:00:44;15.40;99.90
2621;DHT22;1320;48.128;11.592;2023-05-10T00:03:09;15.40;99.90
2621;DHT22;1320;48.128;11.592;2023-05-10T00:05:35;15.40;99.90
2621;DHT22;1320;48.128;11.592;2023-05-10T00:08:01;15.40;99.90
2621;DHT22;1320;48.128;11.592;2023-05-10T00:10:26;15.40;99.90
2621;DHT22;1320;48.128;11.592;2023-05-10T00:12:52;15.40;99.90
2621;DHT22;1320;48.128;11.592;2023-05-10T00:15:18;15.40;99.90
2621;DHT22;1320;48.128;11.592;2023-05-10T00:17:43;15.40;99.90
2621;DHT22;1320;48.128;11.592;2023-05-10T00:20:09;15.40;99.90
2621;DHT22;1320;48.128;11.592;2023-05-10T00:22:35;15.40;99.90
2621;DHT22;1320;48.128;11.592;2023-05-10T00:25:01;15.40;99.90
2621;DHT22;1320;48.128;11.592;2023-05-10T00:27:27;15.40;99.90
2621;DHT22;1320;48.128;11.592;2023-05-10T00:29:52;15.30;99.90
2621;DHT22;1320;48.128;11.592;2023-05-10T00:32:18;15.30;99.90
2621;DHT22;1320;48.128;11.592;2023-05-10T00:34:43;15.30;99.90
2621;DHT22;1320;48.128;11.592;2023-05-10T00:37:09;15.30;99.90
2621;DHT22;1320;48.128;11.592;2023-05-10T00:39:35;15.30;99.90
2621;DHT22;1320;48.128;11.592;2023-05-10T00:42:00;15.30;99.90
2621;DHT22;1320;48.128;11.592;2023-05-10T00:44:26;15.30;99.90
2621;DHT22;1320;48.128;11.592;2023-05-10T00:46:52;15.20;99.90
2621;DHT22;1320;48.128;11.592;2023-05-10T00:49:19;15.20;99.90
2621;DHT22;1320;48.128;11.592;2023-05-10T00:51:45;15.10;99.90
2621;DHT22;1320;48.128;11.592;2023-05-10T00:54:12;15.10;99.90
2621;DHT22;1320;48.128;11.592;2023-05-10T00:56:39;15.00;99.90
2621;DHT22;1320;48.128;11.592;2023-05-10T00:59:05;15.00;99.90
2621;DHT22;1320;48.128;11.592;2023-05-10T01:01:32;15.00;99.90
2621;DHT22;1320;48.128;11.592;2023-05-10T01:03:58;14.90;99.90
2621;DHT22;1320;48.128;11.592;2023-05-10T01:06:24;14.90;99.90
2621;DHT22;1320;48.128;11.592;2023-05-10T01:08:49;15.00;99.90
2621;DHT22;1320;48.128;11.592;2023-05-10T01:11:16;15.00;99.90
2621;DHT22;1320;48.128;11.592;2023-05-10T01:13:43;15.00;99.90
2621;DHT22;1320;48.128;11.592;2023-05-10T01:16:11;15.00;99.90
2621;DHT22;1320;48.128;11.592;2023-05-10T01:18:41;15.00;99.90
2621;DHT22;1320;48.128;11.592;2023-05-10T01:21:48;15.00;99.90
2621;DHT22;1320;48.128;11.592;2023-05-10T01:43:26;15.00;99.90
2621;DHT22;1320;48.128;11.592;2023-05-10T01:46:00;15.00;99.90
2621;DHT22;1320;48.128;11.592;2023-05-10T01:48:30;15.00;99.90
2621;DHT22;1320;48.128;11.592;2023-05-10T01:50:57;15.00;99.90
2621;DHT22;1320;48.128;11.592;2023-05-10T01:53:23;15.00;99.90
2621;DHT22;1320;48.128;11.592;2023-05-10T01:55:52;15.00;99.90
2621;DHT22;1320;48.128;11.592;2023-05-10T01:58:22;15.00;99.90
2621;DHT22;1320;48.128;11.592;2023-05-10T02:00:49;14.90;99.90
2621;DHT22;1320;48.128;11.592;2023-05-10T02:03:16;15.00;99.90
2621;DHT22;1320;48.128;11.592;2023-05-10T02:05:44;15.00;99.90
2621;DHT22;1320;48.128;11.592;2023-05-10T02:08:11;15.00;99.90
2621;DHT22;1320;48.128;11.592;2023-05-10T02:10:39;15.00;99.90
2621;DHT22;1320;48.128;11.592;2023-05-10T02:13:07;15.00;99.90
2621;DHT22;1320;48.128;11.592;2023-05-10T02:15:34;15.00;99.90
2621;DHT22;1320;48.128;11.592;2023-05-10T02:18:00;15.00;99.90
2621;DHT22;1320;48.128;11.592;2023-05-10T02:20:27;15.00;99.90
2621;DHT22;1320;48.128;11.592;2023-05-10T02:22:55;15.00;99.90
2621;DHT22;1320;48.128;11.592;2023-05-10T02:25:22;15.00;99.90
2621;DHT22;1320;48.128;11.592;2023-05-10T02:27:48;15.00;99.90
2621;DHT22;1320;48.128;11.592;2023-05-10T02:30:15;15.00;99.90
2621;DHT22;1320;48.128;11.592;2023-05-10T02:32:42;15.00;99.90
2621;DHT22;1320;48.128;11.592;2023-05-10T02:35:09;15.00;99.90
2621;DHT22;1320;48.128;11.592;2023-05-10T02:37:37;15.00;99.90
2621;DHT22;1320;48.128;11.592;2023-05-10T02:40:04;15.00;99.90
2621;DHT22;1320;48.128;11.592;2023-05-10T02:42:33;15.00;99.90
2621;DHT22;1320;48.128;11.592;2023-05-10T02:45:01;15.00;99.90
2621;DHT22;1320;48.128;11.592;2023-05-10T02:47:29;15.00;99.90
2621;DHT22;1320;48.128;11.592;2023-05-10T02:49:55;15.00;99.90
2621;DHT22;1320;48.128;11.592;2023-05-10T02:52:28;15.00;99.90
2621;DHT22;1320;48.128;11.592;2023-05-10T02:54:57;15.00;99.90
2621;DHT22;1320;48.128;11.592;2023-05-10T02:57:29;15.00;99.90
2621;DHT22;1320;48.128;11.592;2023-05-10T02:59:57;15.00;99.90
2621;DHT22;1320;48.128;11.592;2023-05-10T03:02:23;15.00;99.90
2621;DHT22;1320;48.128;11.592;2023-05-10T03:04:48;15.00;99.90
2621;DHT22;1320;48.128;11.592;2023-05-10T03:07:14;15.00;99.90
2621;DHT22;1320;48.128;11.592;2023-05-10T03:09:40;15.00;99.90
2621;DHT22;1320;48.128;11.592;2023-05-10T03:12:33;15.00;99.90
2621;DHT22;1320;48.128;11.592;2023-05-10T03:15:24;14.90;99.90
2621;DHT22;1320;48.128;11.592;2023-05-10T03:18:22;14.90;99.90
2621;DHT22;1320;48.128;11.592;2023-05-10T03:20:50;14.90;99.90
2621;DHT22;1320;48.128;11.592;2023-05-10T03:23:23;14.90;99.90
2621;DHT22;1320;48.128;11.592;2023-05-10T03:25:52;14.90;99.90
2621;DHT22;1320;48.128;11.592;2023-05-10T03:28:19;14.90;99.90
2621;DHT22;1320;48.128;11.592;2023-05-10T03:30:46;14.90;99.90
2621;DHT22;1320;48.128;11.592;2023-05-10T03:33:12;14.80;99.90
2621;DHT22;1320;48.128;11.592;2023-05-10T03:35:38;14.80;99.90
2621;DHT22;1320;48.128;11.592;2023-05-10T03:38:04;14.80;99.90
2621;DHT22;1320;48.128;11.592;2023-05-10T03:40:30;14.80;99.90
2621;DHT22;1320;48.128;11.592;2023-05-10T03:43:00;14.80;99.90
2621;DHT22;1320;48.128;11.592;2023-05-10T03:45:26;14.80;99.90
2621;DHT22;1320;48.128;11.592;2023-05-10T03:47:52;14.80;99.90
2621;DHT22;1320;48.128;11.592;2023-05-10T03:50:19;14.80;99.90
2621;DHT22;1320;48.128;11.592;2023-05-10T03:52:45;14.80;99.90
2621;DHT22;1320;48.128;11.592;2023-05-10T03:55:11;14.80;99.90
2621;DHT22;1320;48.128;11.592;2023-05-10T03:57:37;14.80;99.90
2621;DHT22;1320;48.128;11.592;2023-05-10T04:00:03;14.70;99.90
2621;DHT22;1320;48.128;11.592;2023-05-10T04:02:29;14.70;99.90
2621;DHT22;1320;48.128;11.592;2023-05-10T04:04:56;14.70;99.90
2621;DHT22;1320;48.128;11.592;2023-05-10T04:07:21;14.70;99.90
2621;DHT22;1320;48.128;11.592;2023-05-10T04:09:47;14.70;99.90
2621;DHT22;1320;48.128;11.592;2023-05-10T04:12:13;14.70;99.90
2621;DHT22;1320;48.128;11.592;2023-05-10T04:14:38;14.80;99.90
2621;DHT22;1320;48.128;11.592;2023-05-10T04:17:04;14.80;99.90
2621;DHT22;1320;48.128;11.592;2023-05-10T04:19:31;14.80;99.90
2621;DHT22;1320;48.128;11.592;2023-05-10T04:21:57;14.80;99.90
2621;DHT22;1320;48.128;11.592;2023-05-10T04:24:23;14.70;99.90
2621;DHT22;1320;48.128;11.592;2023-05-10T04:26:48;14.70;99.90
2621;DHT22;1320;48.128;11.592;2023-05-10T04:29:14;14.70;99.90
2621;DHT22;1320;48.128;11.592;2023-05-10T04:31:40;14.70;99.90
2621;DHT22;1320;48.128;11.592;2023-05-10T04:34:05;14.70;99.90
2621;DHT22;1320;48.128;11.592;2023-05-10T04:36:31;14.70;99.90
2621;DHT22;1320;48.128;11.592;2023-05-10T04:38:59;14.70;99.90
2621;DHT22;1320;48.128;11.592;2023-05-10T04:41:24;14.70;99.90
2621;DHT22;1320;48.128;11.592;2023-05-10T04:43:50;14.70;99.90
2621;DHT22;1320;48.128;11.592;2023-05-10T04:46:16;14.70;99.90
2621;DHT22;1320;48.128;11.592;2023-05-10T04:48:42;14.70;99.90
2621;DHT22;1320;48.128;11.592;2023-05-10T04:51:07;14.70;99.90
2621;DHT22;1320;48.128;11.592;2023-05-10T04:53:33;14.80;99.90
2621;DHT22;1320;48.128;11.592;2023-05-10T04:55:59;14.80;99.90
2621;DHT22;1320;48.128;11.592;2023-05-10T04:58:24;14.80;99.90
2621;DHT22;1320;48.128;11.592;2023-05-10T05:00:50;14.80;99.90
2621;DHT22;1320;48.128;11.592;2023-05-10T05:03:16;14.70;99.90
2621;DHT22;1320;48.128;11.592;2023-05-10T05:05:41;14.60;99.90
2621;DHT22;1320;48.128;11.592;2023-05-10T05:08:07;14.50;99.90
2621;DHT22;1320;48.128;11.592;2023-05-10T05:10:33;14.50;99.90
2621;DHT22;1320;48.128;11.592;2023-05-10T05:12:58;14.40;99.90
2621;DHT22;1320;48.128;11.592;2023-05-10T05:15:24;14.40;99.90
2621;DHT22;1320;48.128;11.592;2023-05-10T05:17:49;14.40;99.90
2621;DHT22;1320;48.128;11.592;2023-05-10T05:20:15;14.40;99.90
2621;DHT22;1320;48.128;11.592;2023-05-10T05:22:41;14.40;99.90
2621;DHT22;1320;48.128;11.592;2023-05-10T05:25:07;14.40;99.90
2621;DHT22;1320;48.128;11.592;2023-05-10T05:27:33;14.40;99.90
2621;DHT22;1320;48.128;11.592;2023-05-10T05:29:58;14.20;99.90
2621;DHT22;1320;48.128;11.592;2023-05-10T05:32:25;14.20;99.90
2621;DHT22;1320;48.128;11.592;2023-05-10T05:34:51;14.20;99.90
2621;DHT22;1320;48.128;11.592;2023-05-10T05:37:18;14.10;99.90
2621;DHT22;1320;48.128;11.592;2023-05-10T05:39:44;14.10;99.90
2621;DHT22;1320;48.128;11.592;2023-05-10T05:42:11;14.10;99.90
2621;DHT22;1320;48.128;11.592;2023-05-10T05:44:37;14.10;99.90
2621;DHT22;1320;48.128;11.592;2023-05-10T05:47:04;14.20;99.90
2621;DHT22;1320;48.128;11.592;2023-05-10T05:49:30;14.20;99.90
2621;DHT22;1320;48.128;11.592;2023-05-10T05:52:02;14.30;99.90
2621;DHT22;1320;48.128;11.592;2023-05-10T05:54:29;14.20;99.90
2621;DHT22;1320;48.128;11.592;2023-05-10T05:56:56;14.00;99.90
2621;DHT22;1320;48.128;11.592;2023-05-10T05:59:22;13.90;99.90
2621;DHT22;1320;48.128;11.592;2023-05-10T06:01:48;13.80;99.90
2621;DHT22;1320;48.128;11.592;2023-05-10T06:04:14;13.80;99.90
2621;DHT22;1320;48.128;11.592;2023-05-10T06:06:39;13.90;99.90
2621;DHT22;1320;48.128;11.592;2023-05-10T06:09:05;14.00;99.90
2621;DHT22;1320;48.128;11.592;2023-05-10T06:11:31;14.00;99.90
2621;DHT22;1320;48.128;11.592;2023-05-10T06:13:58;14.10;99.90
2621;DHT22;1320;48.128;11.592;2023-05-10T06:16:24;14.10;99.90
2621;DHT22;1320;48.128;11.592;2023-05-10T06:18:49;14.10;99.90
2621;DHT22;1320;48.128;11.592;2023-05-10T06:21:15;14.20;99.90
2621;DHT22;1320;48.128;11.592;2023-05-10T06:23:42;14.20;99.90
2621;DHT22;1320;48.128;11.592;2023-05-10T06:26:08;14.30;99.90
2621;DHT22;1320;48.128;11.592;2023-05-10T06:28:33;14.40;99.90
2621;DHT22;1320;48.128;11.592;2023-05-10T06:30:59;14.40;99.90
2621;DHT22;1320;48.128;11.592;2023-05-10T06:33:25;14.50;99.90
2621;DHT22;1320;48.128;11.592;2023-05-10T06:35:51;14.50;99.90
2621;DHT22;1320;48.128;11.592;2023-05-10T06:38:17;14.50;99.90
2621;DHT22;1320;48.128;11.592;2023-05-10T06:40:42;14.60;99.90
2621;DHT22;1320;48.128;11.592;2023-05-10T06:43:09;14.60;99.90
2621;DHT22;1320;48.128;11.592;2023-05-10T06:45:34;14.60;99.90
2621;DHT22;1320;48.128;11.592;2023-05-10T06:48:00;14.60;99.90
2621;DHT22;1320;48.128;11.592;2023-05-10T06:50:26;14.60;99.90
2621;DHT22;1320;48.128;11.592;2023-05-10T06:52:52;14.60;99.90
2621;DHT22;1320;48.128;11.592;2023-05-10T06:55:17;14.60;99.90
2621;DHT22;1320;48.128;11.592;2023-05-10T06:57:43;14.60;99.90
2621;DHT22;1320;48.128;11.592;2023-05-10T07:00:09;14.70;99.90
2621;DHT22;1320;48.128;11.592;2023-05-10T07:02:38;14.80;99.90
2621;DHT22;1320;48.128;11.592;2023-05-10T07:05:03;14.80;99.90
2621;DHT22;1320;48.128;11.592;2023-05-10T07:07:29;14.90;99.90
2621;DHT22;1320;48.128;11.592;2023-05-10T07:09:55;15.00;99.90
2621;DHT22;1320;48.128;11.592;2023-05-10T07:12:23;15.00;99.90
2621;DHT22;1320;48.128;11.592;2023-05-10T07:14:48;15.10;99.90
2621;DHT22;1320;48.128;11.592;2023-05-10T07:17:14;15.10;99.90
2621;DHT22;1320;48.128;11.592;2023-05-10T07:19:40;15.10;99.90
2621;DHT22;1320;48.128;11.592;2023-05-10T07:22:06;15.10;99.90
2621;DHT22;1320;48.128;11.592;2023-05-10T07:24:32;15.10;99.90
2621;DHT22;1320;48.128;11.592;2023-05-10T07:26:58;15.10;99.90
2621;DHT22;1320;48.128;11.592;2023-05-10T07:29:24;15.20;99.90
2621;DHT22;1320;48.128;11.592;2023-05-10T07:31:49;15.40;99.90
2621;DHT22;1320;48.128;11.592;2023-05-10T07:34:15;15.60;99.90
2621;DHT22;1320;48.128;11.592;2023-05-10T07:36:41;15.80;99.90
2621;DHT22;1320;48.128;11.592;2023-05-10T07:39:07;15.90;99.90
2621;DHT22;1320;48.128;11.592;2023-05-10T07:41:32;16.20;99.90
2621;DHT22;1320;48.128;11.592;2023-05-10T07:43:58;16.30;99.90
2621;DHT22;1320;48.128;11.592;2023-05-10T07:46:24;16.40;99.90
2621;DHT22;1320;48.128;11.592;2023-05-10T07:48:49;16.50;99.90
2621;DHT22;1320;48.128;11.592;2023-05-10T07:51:15;16.60;99.90
2621;DHT22;1320;48.128;11.592;2023-05-10T07:53:41;16.60;99.90
2621;DHT22;1320;48.128;11.592;2023-05-10T07:56:27;16.70;99.90
2621;DHT22;1320;48.128;11.592;2023-05-10T07:59:03;16.80;99.90
2621;DHT22;1320;48.128;11.592;2023-05-10T08:01:31;16.90;99.90
2621;DHT22;1320;48.128;11.592;2023-05-10T08:03:57;16.90;99.90
2621;DHT22;1320;48.128;11.592;2023-05-10T08:06:23;17.10;99.90
2621;DHT22;1320;48.128;11.592;2023-05-10T08:08:49;17.30;99.90
2621;DHT22;1320;48.128;11.592;2023-05-10T08:11:19;17.50;99.90
2621;DHT22;1320;48.128;11.592;2023-05-10T08:13:46;17.50;99.90
2621;DHT22;1320;48.128;11.592;2023-05-10T08:16:12;17.70;99.90
2621;DHT22;1320;48.128;11.592;2023-05-10T08:18:38;17.80;99.90
2621;DHT22;1320;48.128;11.592;2023-05-10T08:21:04;17.80;99.90
2621;DHT22;1320;48.128;11.592;2023-05-10T08:23:30;17.80;99.90
2621;DHT22;1320;48.128;11.592;2023-05-10T08:25:56;17.80;99.90
2621;DHT22;1320;48.128;11.592;2023-05-10T08:28:22;17.90;99.90
2621;DHT22;1320;48.128;11.592;2023-05-10T08:30:47;18.10;99.90
2621;DHT22;1320;48.128;11.592;2023-05-10T08:33:13;18.20;99.90
2621;DHT22;1320;48.128;11.592;2023-05-10T08:35:39;18.20;99.90
2621;DHT22;1320;48.128;11.592;2023-05-10T08:38:04;18.20;99.90
2621;DHT22;1320;48.128;11.592;2023-05-10T08:40:30;18.00;99.90
2621;DHT22;1320;48.128;11.592;2023-05-10T08:43:08;17.80;99.90
2621;DHT22;1320;48.128;11.592;2023-05-10T08:45:38;17.60;99.90
2621;DHT22;1320;48.128;11.592;2023-05-10T08:48:05;17.40;99.90
2621;DHT22;1320;48.128;11.592;2023-05-10T08:50:32;17.30;99.90
2621;DHT22;1320;48.128;11.592;2023-05-10T08:53:00;17.30;99.90
2621;DHT22;1320;48.128;11.592;2023-05-10T08:55:27;17.20;99.90
2621;DHT22;1320;48.128;11.592;2023-05-10T08:57:53;17.20;99.90
2621;DHT22;1320;48.128;11.592;2023-05-10T09:00:20;17.20;99.90
2621;DHT22;1320;48.128;11.592;2023-05-10T09:02:45;17.10;99.90
2621;DHT22;1320;48.128;11.592;2023-05-10T09:05:12;17.00;99.90
2621;DHT22;1320;48.128;11.592;2023-05-10T09:07:38;17.00;99.90
2621;DHT22;1320;48.128;11.592;2023-05-10T09:10:04;17.00;99.90
2621;DHT22;1320;48.128;11.592;2023-05-10T09:12:30;17.10;99.90
2621;DHT22;1320;48.128;11.592;2023-05-10T09:14:58;17.10;99.90
2621;DHT22;1320;48.128;11.592;2023-05-10T09:17:25;17.20;99.90
2621;DHT22;1320;48.128;11.592;2023-05-10T09:20:03;17.40;99.90
2621;DHT22;1320;48.128;11.592;2023-05-10T09:22:30;17.90;99.90
2621;DHT22;1320;48.128;11.592;2023-05-10T09:25:09;18.60;99.90
2621;DHT22;1320;48.128;11.592;2023-05-10T09:27:37;19.40;99.90
2621;DHT22;1320;48.128;11.592;2023-05-10T09:30:03;20.10;99.90
2621;DHT22;1320;48.128;11.592;2023-05-10T09:32:59;20.50;99.90
2621;DHT22;1320;48.128;11.592;2023-05-10T09:35:27;20.50;99.90
2621;DHT22;1320;48.128;11.592;2023-05-10T09:37:55;20.20;99.90
2621;DHT22;1320;48.128;11.592;2023-05-10T09:40:21;20.00;99.90
2621;DHT22;1320;48.128;11.592;2023-05-10T09:43:13;19.80;99.90
2621;DHT22;1320;48.128;11.592;2023-05-10T09:45:41;19.70;99.90
2621;DHT22;1320;48.128;11.592;2023-05-10T09:48:06;19.60;99.90
2621;DHT22;1320;48.128;11.592;2023-05-10T09:50:32;19.40;99.90
2621;DHT22;1320;48.128;11.592;2023-05-10T09:53:01;19.30;99.90
2621;DHT22;1320;48.128;11.592;2023-05-10T09:55:43;19.10;99.90
2621;DHT22;1320;48.128;11.592;2023-05-10T09:58:12;19.10;99.90
2621;DHT22;1320;48.128;11.592;2023-05-10T10:00:41;19.00;99.90
2621;DHT22;1320;48.128;11.592;2023-05-10T10:03:12;18.90;99.90
2621;DHT22;1320;48.128;11.592;2023-05-10T10:05:40;19.10;99.90
2621;DHT22;1320;48.128;11.592;2023-05-10T10:08:06;19.20;99.90
2621;DHT22;1320;48.128;11.592;2023-05-10T10:10:33;19.30;99.90
2621;DHT22;1320;48.128;11.592;2023-05-10T10:12:59;19.40;99.90
2621;DHT22;1320;48.128;11.592;2023-05-10T10:15:25;19.50;99.90
2621;DHT22;1320;48.128;11.592;2023-05-10T10:17:52;19.50;99.90
2621;DHT22;1320;48.128;11.592;2023-05-10T10:20:20;19.50;99.90
2621;DHT22;1320;48.128;11.592;2023-05-10T10:22:47;19.40;99.90
2621;DHT22;1320;48.128;11.592;2023-05-10T10:25:17;19.40;99.90
2621;DHT22;1320;48.128;11.592;2023-05-10T10:35:45;19.80;99.90
2621;DHT22;1320;48.128;11.592;2023-05-10T10:38:15;19.90;99.90
2621;DHT22;1320;48.128;11.592;2023-05-10T10:40:41;19.90;99.90
2621;DHT22;1320;48.128;11.592;2023-05-10T10:43:24;20.00;99.90
2621;DHT22;1320;48.128;11.592;2023-05-10T10:46:16;20.10;99.90
2621;DHT22;1320;48.128;11.592;2023-05-10T10:48:50;20.30;99.90
2621;DHT22;1320;48.128;11.592;2023-05-10T10:51:17;20.50;99.90
2621;DHT22;1320;48.128;11.592;2023-05-10T10:53:43;20.60;99.90
2621;DHT22;1320;48.128;11.592;2023-05-10T10:56:11;20.50;99.90
2621;DHT22;1320;48.128;11.592;2023-05-10T10:58:39;20.50;99.90
2621;DHT22;1320;48.128;11.592;2023-05-10T11:01:15;20.40;99.90
2621;DHT22;1320;48.128;11.592;2023-05-10T11:03:54;20.20;99.90
2621;DHT22;1320;48.128;11.592;2023-05-10T11:06:32;20.10;99.90
2621;DHT22;1320;48.128;11.592;2023-05-10T11:09:09;19.90;99.90
2621;DHT22;1320;48.128;11.592;2023-05-10T11:11:36;19.80;99.90
2621;DHT22;1320;48.128;11.592;2023-05-10T11:14:06;19.60;99.90
2621;DHT22;1320;48.128;11.592;2023-05-10T11:16:44;19.30;99.90
2621;DHT22;1320;48.128;11.592;2023-05-10T11:19:11;19.00;99.90
2621;DHT22;1320;48.128;11.592;2023-05-10T11:21:51;18.70;99.90
2621;DHT22;1320;48.128;11.592;2023-05-10T11:24:36;18.40;99.90
2621;DHT22;1320;48.128;11.592;2023-05-10T11:27:02;18.10;99.90
2621;DHT22;1320;48.128;11.592;2023-05-10T11:29:28;17.90;99.90
2621;DHT22;1320;48.128;11.592;2023-05-10T11:31:57;17.70;99.90
2621;DHT22;1320;48.128;11.592;2023-05-10T11:34:32;17.60;99.90
2621;DHT22;1320;48.128;11.592;2023-05-10T11:37:00;17.50;99.90
2621;DHT22;1320;48.128;11.592;2023-05-10T11:39:28;17.30;99.90
2621;DHT22;1320;48.128;11.592;2023-05-10T11:41:54;17.10;99.90
2621;DHT22;1320;48.128;11.592;2023-05-10T11:44:20;16.80;99.90
2621;DHT22;1320;48.128;11.592;2023-05-10T11:46:46;16.60;99.90
2621;DHT22;1320;48.128;11.592;2023-05-10T11:49:11;16.20;99.90
2621;DHT22;1320;48.128;11.592;2023-05-10T11:51:38;15.90;99.90
2621;DHT22;1320;48.128;11.592;2023-05-10T11:54:10;15.60;99.90
2621;DHT22;1320;48.128;11.592;2023-05-10T11:56:37;15.40;99.90
2621;DHT22;1320;48.128;11.592;2023-05-10T11:59:04;15.20;99.90
2621;DHT22;1320;48.128;11.592;2023-05-10T12:01:30;15.20;99.90
2621;DHT22;1320;48.128;11.592;2023-05-10T12:03:57;15.10;99.90
2621;DHT22;1320;48.128;11.592;2023-05-10T12:06:28;15.10;99.90
2621;DHT22;1320;48.128;11.592;2023-05-10T12:08:54;15.20;99.90
2621;DHT22;1320;48.128;11.592;2023-05-10T12:11:24;15.20;99.90
2621;DHT22;1320;48.128;11.592;2023-05-10T12:13:50;15.10;99.90
2621;DHT22;1320;48.128;11.592;2023-05-10T12:16:17;15.20;99.90
2621;DHT22;1320;48.128;11.592;2023-05-10T12:18:44;15.20;99.90
2621;DHT22;1320;48.128;11.592;2023-05-10T12:21:13;15.20;99.90
2621;DHT22;1320;48.128;11.592;2023-05-10T12:23:40;15.20;99.90
2621;DHT22;1320;48.128;11.592;2023-05-10T12:26:08;15.20;99.90
2621;DHT22;1320;48.128;11.592;2023-05-10T12:28:34;15.10;99.90
2621;DHT22;1320;48.128;11.592;2023-05-10T12:31:01;15.00;99.90
2621;DHT22;1320;48.128;11.592;2023-05-10T12:33:27;15.00;99.90
2621;DHT22;1320;48.128;11.592;2023-05-10T12:36:00;14.80;99.90
2621;DHT22;1320;48.128;11.592;2023-05-10T12:38:36;14.80;99.90
2621;DHT22;1320;48.128;11.592;2023-05-10T12:41:05;14.70;99.90
2621;DHT22;1320;48.128;11.592;2023-05-10T12:43:32;14.80;99.90
2621;DHT22;1320;48.128;11.592;2023-05-10T12:45:58;14.70;99.90
2621;DHT22;1320;48.128;11.592;2023-05-10T12:48:24;14.70;99.90
2621;DHT22;1320;48.128;11.592;2023-05-10T12:50:49;14.60;99.90
2621;DHT22;1320;48.128;11.592;2023-05-10T12:53:16;14.60;99.90
2621;DHT22;1320;48.128;11.592;2023-05-10T12:55:42;14.60;99.90
2621;DHT22;1320;48.128;11.592;2023-05-10T12:58:08;14.60;99.90
2621;DHT22;1320;48.128;11.592;2023-05-10T13:00:34;14.60;99.90
2621;DHT22;1320;48.128;11.592;2023-05-10T13:03:00;14.70;99.90
2621;DHT22;1320;48.128;11.592;2023-05-10T13:05:25;14.70;99.90
2621;DHT22;1320;48.128;11.592;2023-05-10T13:07:51;14.70;99.90
2621;DHT22;1320;48.128;11.592;2023-05-10T13:10:17;14.70;99.90
2621;DHT22;1320;48.128;11.592;2023-05-10T13:31:05;15.00;99.90
2621;DHT22;1320;48.128;11.592;2023-05-10T14:40:16;15.20;99.90
2621;DHT22;1320;48.128;11.592;2023-05-10T16:01:25;13.90;99.90
2621;DHT22;1320;48.128;11.592;2023-05-10T18:49:32;12.10;99.90
2621;DHT22;1320;48.128;11.592;2023-05-10T19:12:29;12.10;99.90
2621;DHT22;1320;48.128;11.592;2023-05-10T19:29:04;12.10;99.90
2621;DHT22;1320;48.128;11.592;2023-05-10T19:32:20;12.10;99.90
2621;DHT22;1320;48.128;11.592;2023-05-10T20:02:13;12.10;99.90
2621;DHT22;1320;48.128;11.592;2023-05-10T20:04:39;12.10;99.90
2621;DHT22;1320;48.128;11.592;2023-05-10T20:07:05;12.10;99.90
2621;DHT22;1320;48.128;11.592;2023-05-10T20:09:30;12.10;99.90
2621;DHT22;1320;48.128;11.592;2023-05-10T20:11:56;12.10;99.90
2621;DHT22;1320;48.128;11.592;2023-05-10T20:14:22;12.20;99.90
2621;DHT22;1320;48.128;11.592;2023-05-10T20:16:47;12.20;99.90
2621;DHT22;1320;48.128;11.592;2023-05-10T20:19:13;12.20;99.90
2621;DHT22;1320;48.128;11.592;2023-05-10T20:21:39;12.20;99.90
2621;DHT22;1320;48.128;11.592;2023-05-10T20:24:05;12.30;99.90
2621;DHT22;1320;48.128;11.592;2023-05-10T20:26:32;12.20;99.90
2621;DHT22;1320;48.128;11.592;2023-05-10T20:28:57;12.20;99.90
2621;DHT22;1320;48.128;11.592;2023-05-10T20:31:23;12.30;99.90
2621;DHT22;1320;48.128;11.592;2023-05-10T20:33:48;12.30;99.90
2621;DHT22;1320;48.128;11.592;2023-05-10T20:36:14;12.30;99.90
2621;DHT22;1320;48.128;11.592;2023-05-10T20:38:40;12.30;99.90
2621;DHT22;1320;48.128;11.592;2023-05-10T20:41:05;12.30;99.90
2621;DHT22;1320;48.128;11.592;2023-05-10T20:43:31;12.30;99.90
2621;DHT22;1320;48.128;11.592;2023-05-10T20:45:57;12.30;99.90
2621;DHT22;1320;48.128;11.592;2023-05-10T20:48:30;12.20;99.90
2621;DHT22;1320;48.128;11.592;2023-05-10T20:50:57;12.20;99.90
2621;DHT22;1320;48.128;11.592;2023-05-10T20:53:22;12.10;99.90
2621;DHT22;1320;48.128;11.592;2023-05-10T20:55:48;12.10;99.90
2621;DHT22;1320;48.128;11.592;2023-05-10T20:58:14;12.10;99.90
2621;DHT22;1320;48.128;11.592;2023-05-10T21:00:39;12.00;99.90
2621;DHT22;1320;48.128;11.592;2023-05-10T21:03:05;12.00;99.90
2621;DHT22;1320;48.128;11.592;2023-05-10T21:05:31;12.10;99.90
2621;DHT22;1320;48.128;11.592;2023-05-10T21:07:56;12.00;99.90
2621;DHT22;1320;48.128;11.592;2023-05-10T21:10:22;12.10;99.90
2621;DHT22;1320;48.128;11.592;2023-05-10T21:12:49;12.10;99.90
2621;DHT22;1320;48.128;11.592;2023-05-10T21:15:15;12.10;99.90
2621;DHT22;1320;48.128;11.592;2023-05-10T21:17:43;12.10;99.90
2621;DHT22;1320;48.128;11.592;2023-05-10T21:20:09;12.10;99.90
2621;DHT22;1320;48.128;11.592;2023-05-10T21:22:35;12.10;99.90
2621;DHT22;1320;48.128;11.592;2023-05-10T21:25:01;12.00;99.90
2621;DHT22;1320;48.128;11.592;2023-05-10T21:27:26;12.00;99.90
2621;DHT22;1320;48.128;11.592;2023-05-10T21:29:52;11.90;99.90
2621;DHT22;1320;48.128;11.592;2023-05-10T21:32:17;11.90;99.90
2621;DHT22;1320;48.128;11.592;2023-05-10T21:34:43;11.80;99.90
2621;DHT22;1320;48.128;11.592;2023-05-10T21:37:09;11.80;99.90
2621;DHT22;1320;48.128;11.592;2023-05-10T21:39:34;11.80;99.90
2621;DHT22;1320;48.128;11.592;2023-05-10T21:42:00;11.80;99.90
2621;DHT22;1320;48.128;11.592;2023-05-10T21:44:27;11.80;99.90
2621;DHT22;1320;48.128;11.592;2023-05-10T21:46:53;11.80;99.90
2621;DHT22;1320;48.128;11.592;2023-05-10T21:49:19;11.80;99.90
2621;DHT22;1320;48.128;11.592;2023-05-10T21:51:44;11.80;99.90
2621;DHT22;1320;48.128;11.592;2023-05-10T21:54:10;11.80;99.90
2621;DHT22;1320;48.128;11.592;2023-05-10T21:56:36;11.80;99.90
2621;DHT22;1320;48.128;11.592;2023-05-10T21:59:01;11.80;99.90
2621;DHT22;1320;48.128;11.592;2023-05-10T22:01:27;11.80;99.90
2621;DHT22;1320;48.128;11.592;2023-05-10T22:03:53;11.80;99.90
2621;DHT22;1320;48.128;11.592;2023-05-10T22:06:19;11.80;99.90
2621;DHT22;1320;48.128;11.592;2023-05-10T22:08:44;11.80;99.90
2621;DHT22;1320;48.128;11.592;2023-05-10T22:11:10;11.80;99.90
2621;DHT22;1320;48.128;11.592;2023-05-10T22:13:35;11.80;99.90
2621;DHT22;1320;48.128;11.592;2023-05-10T22:16:01;11.80;99.90
2621;DHT22;1320;48.128;11.592;2023-05-10T22:18:27;11.70;99.90
2621;DHT22;1320;48.128;11.592;2023-05-10T22:20:52;11.70;99.90
2621;DHT22;1320;48.128;11.592;2023-05-10T22:23:18;11.70;99.90
2621;DHT22;1320;48.128;11.592;2023-05-10T22:25:44;11.70;99.90
2621;DHT22;1320;48.128;11.592;2023-05-10T22:28:09;11.60;99.90
2621;DHT22;1320;48.128;11.592;2023-05-10T22:30:35;11.60;99.90
2621;DHT22;1320;48.128;11.592;2023-05-10T22:33:01;11.60;99.90
2621;DHT22;1320;48.128;11.592;2023-05-10T22:35:27;11.60;99.90
2621;DHT22;1320;48.128;11.592;2023-05-10T22:37:52;11.60;99.90
2621;DHT22;1320;48.128;11.592;2023-05-10T22:40:18;11.60;99.90
2621;DHT22;1320;48.128;11.592;2023-05-10T22:42:44;11.50;99.90
2621;DHT22;1320;48.128;11.592;2023-05-10T22:45:10;11.50;99.90